createdAt,value
2022-10-17T00:01:06.444Z,2.80
2022-10-17T00:03:35.268Z,2.67
2022-10-17T00:06:10.301Z,2.58
2022-10-17T00:08:40.710Z,2.83
2022-10-17T00:11:14.678Z,2.72
2022-10-17T00:13:42.416Z,3.13
2022-10-17T00:16:10.429Z,2.80
2022-10-17T00:18:38.257Z,2.90
2022-10-17T00:21:07.551Z,2.90
2022-10-17T00:23:35.295Z,3.05
2022-10-17T00:26:05.702Z,3.10
2022-10-17T00:28:33.885Z,3.25
2022-10-17T00:31:04.634Z,2.70
2022-10-17T00:33:33.865Z,2.92
2022-10-17T00:36:10.023Z,2.70
2022-10-17T00:38:38.376Z,2.65
2022-10-17T00:41:07.332Z,2.53
2022-10-17T00:43:55.668Z,2.67
2022-10-17T00:46:26.337Z,2.22
2022-10-17T00:48:57.892Z,2.72
2022-10-17T00:51:35.867Z,2.28
2022-10-17T00:54:05.932Z,2.70
2022-10-17T00:56:35.390Z,2.90
2022-10-17T00:59:03.752Z,2.60
2022-10-17T01:01:31.784Z,3.15
2022-10-17T01:03:59.733Z,2.60
2022-10-17T01:06:28.832Z,2.58
2022-10-17T01:08:57.300Z,2.70
2022-10-17T01:11:40.960Z,2.25
2022-10-17T01:14:26.713Z,2.88
2022-10-17T01:17:07.991Z,2.35
2022-10-17T01:19:57.815Z,2.88
2022-10-17T01:22:35.245Z,2.53
2022-10-17T01:25:27.806Z,2.55
2022-10-17T01:28:25.338Z,2.53
2022-10-17T01:31:05.491Z,2.50
2022-10-17T01:33:48.507Z,2.47
2022-10-17T01:36:31.982Z,3.30
2022-10-17T01:39:10.913Z,2.55
2022-10-17T01:41:48.263Z,2.40
2022-10-17T01:44:22.876Z,2.58
2022-10-17T01:46:58.759Z,3.00
2022-10-17T01:49:30.607Z,2.60
2022-10-17T01:52:05.015Z,2.20
2022-10-17T01:54:40.649Z,2.72
2022-10-17T01:57:17.898Z,2.55
2022-10-17T01:59:50.619Z,2.58
2022-10-17T02:02:21.824Z,2.53
2022-10-17T02:04:53.262Z,2.47
2022-10-17T02:07:21.065Z,2.40
2022-10-17T02:09:48.876Z,2.47
2022-10-17T02:12:48.635Z,2.58
2022-10-17T02:15:55.895Z,2.92
2022-10-17T02:18:54.422Z,2.80
2022-10-17T02:21:36.898Z,2.45
2022-10-17T02:24:16.759Z,2.33
2022-10-17T02:26:53.862Z,2.83
2022-10-17T02:29:26.670Z,2.35
2022-10-17T02:32:03.731Z,2.13
2022-10-17T02:34:38.377Z,2.80
2022-10-17T02:37:10.468Z,2.55
2022-10-17T02:39:41.305Z,2.20
2022-10-17T02:42:14.045Z,2.45
2022-10-17T02:44:45.262Z,2.47
2022-10-17T02:47:23.033Z,2.75
2022-10-17T02:49:55.748Z,2.78
2022-10-17T02:52:32.381Z,1.90
2022-10-17T02:55:10.706Z,2.33
2022-10-17T02:57:41.910Z,2.42
2022-10-17T03:00:14.154Z,2.20
2022-10-17T03:02:45.239Z,2.38
2022-10-17T03:05:17.726Z,2.38
2022-10-17T03:07:45.516Z,2.35
2022-10-17T03:10:13.598Z,2.00
2022-10-17T03:12:41.457Z,2.58
2022-10-17T03:15:11.336Z,2.28
2022-10-17T03:17:39.533Z,2.35
2022-10-17T03:20:08.799Z,2.05
2022-10-17T03:22:37.863Z,1.95
2022-10-17T03:25:06.324Z,2.10
2022-10-17T03:27:34.098Z,2.30
2022-10-17T03:30:01.851Z,2.50
2022-10-17T03:32:29.560Z,2.38
2022-10-17T03:34:57.323Z,2.40
2022-10-17T03:37:25.058Z,2.25
2022-10-17T03:39:54.302Z,2.00
2022-10-17T03:42:22.137Z,2.20
2022-10-17T03:44:49.882Z,2.03
2022-10-17T03:47:17.598Z,1.92
2022-10-17T03:49:45.437Z,2.50
2022-10-17T03:52:13.944Z,2.47
2022-10-17T03:54:42.010Z,2.10
2022-10-17T03:57:11.198Z,1.70
2022-10-17T03:59:39.690Z,2.40
2022-10-17T04:02:07.477Z,2.38
2022-10-17T04:04:35.283Z,2.75
2022-10-17T04:07:03.078Z,1.92
2022-10-17T04:09:30.842Z,2.20
2022-10-17T04:11:58.623Z,2.28
2022-10-17T04:14:27.871Z,2.22
2022-10-17T04:16:55.808Z,2.05
2022-10-17T04:19:23.517Z,2.55
2022-10-17T04:21:51.300Z,1.95
2022-10-17T04:24:19.416Z,1.80
2022-10-17T04:26:50.029Z,1.90
2022-10-17T04:29:17.849Z,1.75
2022-10-17T04:31:46.969Z,1.58
2022-10-17T04:34:14.828Z,2.47
2022-10-17T04:36:42.614Z,2.10
2022-10-17T04:39:10.584Z,2.10
2022-10-17T04:41:38.374Z,2.35
2022-10-17T04:44:06.487Z,2.30
2022-10-17T04:46:35.766Z,1.98
2022-10-17T04:49:04.994Z,2.08
2022-10-17T04:51:32.783Z,1.85
2022-10-17T04:54:00.522Z,1.90
2022-10-17T04:56:28.261Z,2.20
2022-10-17T04:58:56.221Z,1.98
2022-10-17T05:01:25.149Z,2.13
2022-10-17T05:03:53.820Z,2.17
2022-10-17T05:06:25.259Z,2.20
2022-10-17T05:08:53.045Z,1.67
2022-10-17T05:11:23.727Z,2.20
2022-10-17T05:13:52.972Z,2.13
2022-10-17T05:16:21.085Z,1.70
2022-10-17T05:18:52.916Z,1.92
2022-10-17T05:21:24.306Z,1.80
2022-10-17T05:23:53.077Z,2.00
2022-10-17T05:26:21.801Z,1.73
2022-10-17T05:28:49.685Z,2.08
2022-10-17T05:31:17.519Z,2.00
2022-10-17T05:33:45.638Z,1.80
2022-10-17T05:36:13.516Z,2.10
2022-10-17T05:38:42.765Z,1.67
2022-10-17T05:41:11.970Z,1.90
2022-10-17T05:43:39.760Z,2.20
2022-10-17T05:46:08.087Z,1.83
2022-10-17T05:48:36.315Z,2.00
2022-10-17T05:51:08.716Z,1.95
2022-10-17T05:53:38.970Z,1.83
2022-10-17T05:56:11.469Z,1.88
2022-10-17T05:58:52.555Z,2.40
2022-10-17T06:01:22.098Z,1.95
2022-10-17T06:03:49.864Z,1.60
2022-10-17T06:06:18.987Z,1.90
2022-10-17T06:08:47.232Z,1.70
2022-10-17T06:11:16.541Z,1.90
2022-10-17T06:13:44.328Z,1.67
2022-10-17T06:16:12.100Z,2.17
2022-10-17T06:18:40.273Z,1.83
2022-10-17T06:21:11.942Z,1.88
2022-10-17T06:23:40.087Z,1.60
2022-10-17T06:26:08.488Z,1.80
2022-10-17T06:28:38.157Z,1.88
2022-10-17T06:31:08.015Z,1.42
2022-10-17T06:33:36.370Z,1.80
2022-10-17T06:36:06.199Z,2.05
2022-10-17T06:38:35.628Z,1.80
2022-10-17T06:41:08.787Z,2.17
2022-10-17T06:43:38.943Z,1.73
2022-10-17T06:46:07.859Z,2.15
2022-10-17T06:48:35.742Z,1.70
2022-10-17T06:51:05.816Z,2.00
2022-10-17T06:53:35.761Z,1.70
2022-10-17T06:56:04.664Z,1.90
2022-10-17T06:58:35.028Z,1.65
2022-10-17T07:03:37.535Z,1.75
2022-10-17T07:06:06.572Z,1.63
2022-10-17T07:08:34.650Z,1.50
2022-10-17T07:11:11.347Z,1.45
2022-10-17T07:13:39.507Z,1.50
2022-10-17T07:16:09.617Z,1.67
2022-10-17T07:18:37.563Z,1.52
2022-10-17T07:21:06.204Z,1.92
2022-10-17T07:23:36.500Z,1.50
2022-10-17T07:26:07.791Z,1.30
2022-10-17T07:28:36.466Z,1.48
2022-10-17T07:31:06.580Z,1.70
2022-10-17T07:33:36.083Z,1.50
2022-10-17T07:36:06.453Z,1.67
2022-10-17T07:38:34.918Z,1.98
2022-10-17T07:41:06.022Z,1.40
2022-10-17T07:43:34.764Z,1.60
2022-10-17T07:46:05.178Z,1.98
2022-10-17T07:48:32.963Z,1.92
2022-10-17T07:51:06.155Z,1.23
2022-10-17T07:53:36.366Z,1.70
2022-10-17T07:56:07.669Z,1.80
2022-10-17T07:58:36.707Z,1.15
2022-10-17T08:01:08.346Z,1.25
2022-10-17T08:03:38.662Z,1.60
2022-10-17T08:06:07.901Z,1.08
2022-10-17T08:08:35.726Z,1.30
2022-10-17T08:11:06.553Z,1.52
2022-10-17T08:16:03.972Z,1.15
2022-10-17T08:18:32.145Z,1.27
2022-10-17T08:21:01.536Z,1.27
2022-10-17T08:23:30.908Z,1.23
2022-10-17T08:26:00.864Z,1.20
2022-10-17T08:28:28.811Z,1.40
2022-10-17T08:31:04.699Z,1.25
2022-10-17T08:33:33.161Z,1.05
2022-10-17T08:36:01.080Z,1.20
2022-10-17T08:38:35.426Z,1.58
2022-10-17T08:41:12.910Z,1.27
2022-10-17T08:44:00.434Z,0.95
2022-10-17T08:46:33.515Z,1.20
2022-10-17T08:49:06.605Z,1.10
2022-10-17T08:51:45.106Z,1.23
2022-10-17T08:54:20.918Z,1.20
2022-10-17T08:56:52.116Z,1.10
2022-10-17T08:59:26.570Z,1.23
2022-10-17T09:02:03.492Z,1.17
2022-10-17T09:04:49.908Z,1.60
2022-10-17T09:07:28.454Z,1.40
2022-10-17T09:10:11.599Z,1.10
2022-10-17T09:12:50.695Z,1.40
2022-10-17T09:16:00.029Z,1.15
2022-10-17T09:18:32.612Z,1.05
2022-10-17T09:21:16.889Z,1.63
2022-10-17T09:23:53.199Z,1.50
2022-10-17T09:26:29.765Z,2.22
2022-10-17T09:29:01.233Z,1.30
2022-10-17T09:31:41.403Z,1.10
2022-10-17T09:34:12.018Z,1.23
2022-10-17T09:36:42.481Z,1.00
2022-10-17T09:39:15.597Z,1.85
2022-10-17T09:41:49.628Z,1.00
2022-10-17T09:44:24.157Z,1.17
2022-10-17T09:47:13.788Z,1.13
2022-10-17T09:49:44.109Z,1.27
2022-10-17T09:52:16.888Z,1.17
2022-10-17T09:54:48.786Z,1.38
2022-10-17T09:57:20.448Z,0.90
2022-10-17T09:59:58.555Z,1.30
2022-10-17T10:02:29.561Z,1.30
2022-10-17T10:05:04.246Z,1.10
2022-10-17T10:07:36.276Z,1.50
2022-10-17T10:10:08.402Z,1.13
2022-10-17T10:12:40.220Z,1.20
2022-10-17T10:15:36.231Z,1.60
2022-10-17T10:18:04.586Z,1.13
2022-10-17T10:20:36.476Z,1.13
2022-10-17T10:23:17.350Z,1.20
2022-10-17T10:25:56.954Z,1.10
2022-10-17T10:28:32.929Z,1.17
2022-10-17T10:31:06.559Z,0.98
2022-10-17T10:33:41.886Z,1.10
2022-10-17T10:36:10.343Z,1.17
2022-10-17T10:38:42.432Z,1.27
2022-10-17T10:41:12.707Z,1.17
2022-10-17T10:43:46.667Z,1.38
2022-10-17T10:46:21.862Z,1.17
2022-10-17T10:48:58.496Z,0.90
2022-10-17T10:51:34.868Z,1.00
2022-10-17T10:54:14.064Z,1.40
2022-10-17T10:56:49.849Z,1.20
2022-10-17T10:59:27.859Z,1.23
2022-10-17T11:02:02.513Z,1.38
2022-10-17T11:04:38.557Z,1.30
2022-10-17T11:07:12.910Z,1.15
2022-10-17T11:09:57.240Z,1.10
2022-10-17T11:12:31.814Z,1.15
2022-10-17T11:15:15.468Z,1.33
2022-10-17T11:17:54.036Z,1.00
2022-10-17T11:20:31.501Z,1.05
2022-10-17T11:23:13.119Z,1.27
2022-10-17T11:25:42.659Z,1.35
2022-10-17T11:28:16.646Z,1.05
2022-10-17T11:30:53.238Z,1.13
2022-10-17T11:33:35.146Z,1.13
2022-10-17T11:36:07.732Z,1.20
2022-10-17T11:38:48.690Z,1.17
2022-10-17T11:41:23.981Z,1.13
2022-10-17T11:43:58.008Z,1.20
2022-10-17T11:46:29.567Z,1.30
2022-10-17T11:49:07.552Z,0.90
2022-10-17T11:52:02.827Z,1.50
2022-10-17T11:54:39.643Z,1.00
2022-10-17T11:57:38.503Z,1.10
2022-10-17T12:00:27.874Z,1.20
2022-10-17T12:03:14.617Z,0.93
2022-10-17T12:05:51.598Z,0.93
2022-10-17T12:08:32.112Z,1.10
2022-10-17T12:11:08.480Z,1.00
2022-10-17T12:13:55.060Z,1.52
2022-10-17T12:16:46.059Z,1.20
2022-10-17T12:22:04.218Z,1.10
2022-10-17T12:24:41.347Z,0.85
2022-10-17T12:27:38.003Z,1.23
2022-10-17T12:30:21.104Z,0.80
2022-10-17T12:33:07.969Z,0.93
2022-10-17T12:35:40.040Z,1.00
2022-10-17T12:38:29.163Z,1.00
2022-10-17T12:41:06.282Z,0.88
2022-10-17T12:43:53.278Z,1.08
2022-10-17T12:46:58.020Z,0.85
2022-10-17T12:49:42.335Z,1.10
2022-10-17T12:52:57.960Z,1.08
2022-10-17T12:55:27.140Z,0.70
2022-10-17T12:58:00.064Z,1.10
2022-10-17T13:00:38.139Z,0.90
2022-10-17T13:03:13.857Z,0.90
2022-10-17T13:05:46.838Z,1.20
2022-10-17T13:08:22.125Z,0.98
2022-10-17T13:10:53.412Z,0.95
2022-10-17T13:13:26.500Z,1.20
2022-10-17T13:15:56.318Z,1.00
2022-10-17T13:18:26.254Z,0.88
2022-10-17T13:21:01.143Z,1.23
2022-10-17T13:23:35.095Z,1.20
2022-10-17T13:26:16.349Z,0.82
2022-10-17T13:28:44.772Z,1.15
2022-10-17T13:31:31.760Z,0.77
2022-10-17T13:34:02.017Z,1.23
2022-10-17T13:36:32.222Z,1.02
2022-10-17T13:39:12.332Z,0.80
2022-10-17T13:41:43.034Z,0.90
2022-10-17T13:44:16.151Z,0.80
2022-10-17T13:46:45.098Z,0.95
2022-10-17T13:49:25.742Z,0.80
2022-10-17T13:51:57.285Z,0.70
2022-10-17T13:54:40.120Z,0.90
2022-10-17T13:57:21.385Z,1.05
2022-10-17T13:59:52.793Z,0.82
2022-10-17T14:02:23.696Z,0.98
2022-10-17T14:05:16.683Z,1.00
2022-10-17T14:08:10.800Z,0.77
2022-10-17T14:10:42.975Z,1.08
2022-10-17T14:13:23.614Z,0.98
2022-10-17T14:15:55.533Z,0.73
2022-10-17T14:18:33.280Z,1.00
2022-10-17T14:24:13.854Z,0.85
2022-10-17T14:26:51.332Z,0.88
2022-10-17T14:29:26.130Z,0.80
2022-10-17T14:32:02.711Z,0.90
2022-10-17T14:34:35.342Z,1.20
2022-10-17T14:37:10.187Z,0.95
2022-10-17T14:39:38.964Z,0.80
2022-10-17T14:42:08.131Z,0.73
2022-10-17T14:44:37.416Z,0.70
2022-10-17T14:47:38.136Z,0.90
2022-10-17T14:50:08.804Z,1.00
2022-10-17T14:52:38.857Z,0.90
2022-10-17T14:55:25.659Z,0.80
2022-10-17T14:57:55.137Z,1.15
2022-10-17T15:00:25.041Z,0.80
2022-10-17T15:02:55.217Z,1.00
2022-10-17T15:05:24.950Z,1.10
2022-10-17T15:07:53.415Z,0.77
2022-10-17T15:10:35.717Z,1.05
2022-10-17T15:15:53.699Z,0.77
2022-10-17T15:18:21.518Z,0.90
2022-10-17T15:20:55.355Z,0.82
2022-10-17T15:23:32.552Z,0.70
2022-10-17T15:26:00.309Z,0.80
2022-10-17T15:28:29.420Z,1.05
2022-10-17T15:30:57.187Z,0.98
2022-10-17T15:33:25.050Z,0.75
2022-10-17T15:35:53.107Z,0.82
2022-10-17T15:38:20.898Z,1.17
2022-10-17T15:40:50.889Z,0.95
2022-10-17T15:43:19.827Z,0.80
2022-10-17T15:45:49.635Z,0.93
2022-10-17T15:48:25.471Z,1.00
2022-10-17T15:50:53.203Z,0.98
2022-10-17T15:53:20.988Z,1.05
2022-10-17T15:55:50.886Z,1.00
2022-10-17T15:58:20.693Z,0.80
2022-10-17T16:00:49.901Z,1.20
2022-10-17T16:03:17.705Z,1.00
2022-10-17T16:05:45.492Z,0.80
2022-10-17T16:08:13.285Z,0.85
2022-10-17T16:10:41.934Z,0.90
2022-10-17T16:13:18.530Z,0.88
2022-10-17T16:15:46.468Z,0.85
2022-10-17T16:18:15.610Z,1.00
2022-10-17T16:20:43.385Z,0.82
2022-10-17T16:23:14.327Z,0.85
2022-10-17T16:25:42.576Z,1.00
2022-10-17T16:28:11.924Z,0.95
2022-10-17T16:30:46.025Z,1.00
2022-10-17T16:33:15.138Z,0.80
2022-10-17T16:35:43.122Z,0.65
2022-10-17T16:38:10.918Z,0.88
2022-10-17T16:40:40.411Z,0.90
2022-10-17T16:43:08.931Z,0.90
2022-10-17T16:45:37.406Z,1.50
2022-10-17T16:48:05.695Z,1.27
2022-10-17T16:50:35.740Z,2.17
2022-10-17T16:53:04.039Z,1.63
2022-10-17T16:55:31.722Z,1.60
2022-10-17T16:57:59.947Z,1.63
2022-10-17T17:00:27.826Z,1.85
2022-10-17T17:02:55.581Z,1.40
2022-10-17T17:05:23.343Z,1.30
2022-10-17T17:07:52.513Z,1.30
2022-10-17T17:10:20.260Z,1.30
2022-10-17T17:12:48.137Z,1.80
2022-10-17T17:15:15.969Z,1.50
2022-10-17T17:17:54.966Z,1.48
2022-10-17T17:20:23.370Z,1.55
2022-10-17T17:22:52.707Z,1.58
2022-10-17T17:25:20.510Z,1.30
2022-10-17T17:27:48.381Z,1.40
2022-10-17T17:30:16.924Z,1.73
2022-10-17T17:32:44.644Z,1.60
2022-10-17T17:35:12.368Z,1.30
2022-10-17T17:37:40.152Z,1.60
2022-10-17T17:40:10.981Z,1.17
2022-10-17T17:45:07.566Z,1.00
2022-10-17T17:47:35.342Z,1.90
2022-10-17T17:50:03.608Z,1.25
2022-10-17T17:52:31.818Z,1.05
2022-10-17T17:54:59.747Z,1.20
2022-10-17T17:57:30.476Z,1.50
2022-10-17T17:59:58.225Z,1.15
2022-10-17T18:02:25.955Z,1.40
2022-10-17T18:04:53.959Z,1.30
2022-10-17T18:07:22.126Z,1.15
2022-10-17T18:09:51.190Z,1.33
2022-10-17T18:12:19.476Z,1.40
2022-10-17T18:14:49.162Z,1.20
2022-10-17T18:17:16.926Z,1.20
2022-10-17T18:19:44.833Z,1.17
2022-10-17T18:22:12.749Z,1.00
2022-10-17T18:24:40.570Z,1.42
2022-10-17T18:27:08.449Z,1.40
2022-10-17T18:29:36.622Z,1.80
2022-10-17T18:32:06.220Z,1.33
2022-10-17T18:34:34.118Z,1.20
2022-10-17T18:37:02.545Z,1.25
2022-10-17T18:39:30.498Z,1.33
2022-10-17T18:41:58.925Z,1.52
2022-10-17T18:44:26.991Z,1.00
2022-10-17T18:46:58.621Z,1.23
2022-10-17T18:49:30.996Z,1.52
2022-10-17T18:51:59.579Z,1.55
2022-10-17T18:54:27.412Z,1.50
2022-10-17T18:56:56.603Z,1.25
2022-10-17T18:59:24.811Z,1.08
2022-10-17T19:01:53.030Z,1.40
2022-10-17T19:04:21.020Z,1.50
2022-10-17T19:06:50.112Z,1.33
2022-10-17T19:09:18.369Z,1.40
2022-10-17T19:11:46.405Z,1.40
2022-10-17T19:14:15.088Z,1.20
2022-10-17T19:16:46.194Z,1.50
2022-10-17T19:19:16.503Z,1.27
2022-10-17T19:21:45.163Z,1.67
2022-10-17T19:24:17.618Z,1.10
2022-10-17T19:26:47.422Z,1.02
2022-10-17T19:29:18.268Z,1.02
2022-10-17T19:34:17.656Z,1.17
2022-10-17T19:36:46.386Z,1.10
2022-10-17T19:39:19.388Z,1.00
2022-10-17T19:41:49.310Z,1.10
2022-10-17T19:44:18.260Z,1.00
2022-10-17T19:46:46.930Z,1.10
2022-10-17T19:49:15.581Z,0.93
2022-10-17T19:51:43.629Z,1.15
2022-10-17T19:54:11.974Z,1.00
2022-10-17T19:56:43.556Z,1.00
2022-10-17T19:59:14.396Z,1.23
2022-10-17T20:04:12.915Z,1.05
2022-10-17T20:06:42.316Z,1.15
2022-10-17T20:09:16.588Z,1.17
2022-10-17T20:11:46.943Z,1.30
2022-10-17T20:14:14.682Z,1.13
2022-10-17T20:16:44.645Z,1.42
2022-10-17T20:19:14.806Z,1.37
2022-10-17T20:21:44.465Z,1.30
2022-10-17T20:24:15.801Z,1.27
2022-10-17T20:26:44.709Z,1.20
2022-10-17T20:29:17.246Z,0.82
2022-10-17T20:31:47.924Z,1.13
2022-10-17T20:34:18.146Z,1.27
2022-10-17T20:36:46.958Z,1.30
2022-10-17T20:39:17.787Z,1.30
2022-10-17T20:44:15.398Z,0.90
2022-10-17T20:46:52.933Z,1.15
2022-10-17T20:49:28.657Z,1.17
2022-10-17T20:51:56.410Z,1.10
2022-10-17T20:54:24.431Z,1.15
2022-10-17T20:56:52.273Z,1.20
2022-10-17T20:59:22.268Z,1.05
2022-10-17T21:01:50.419Z,1.23
2022-10-17T21:07:06.129Z,1.20
2022-10-17T21:09:34.089Z,1.02
2022-10-17T21:12:04.211Z,1.00
2022-10-17T21:14:33.849Z,1.30
2022-10-17T21:17:04.929Z,1.25
2022-10-17T21:19:33.133Z,1.15
2022-10-17T21:22:00.907Z,1.13
2022-10-17T21:24:28.654Z,1.38
2022-10-17T21:26:57.540Z,0.93
2022-10-17T21:29:25.763Z,0.90
2022-10-17T21:31:54.862Z,1.10
2022-10-17T21:34:25.132Z,1.10
2022-10-17T21:36:53.309Z,0.95
2022-10-17T21:39:21.846Z,1.17
2022-10-17T21:41:49.656Z,0.80
2022-10-17T21:44:20.850Z,1.15
2022-10-17T21:46:49.475Z,1.10
2022-10-17T21:49:21.043Z,1.02
2022-10-17T21:51:49.902Z,0.90
2022-10-17T21:54:20.055Z,0.90
2022-10-17T21:56:48.060Z,1.17
2022-10-17T21:59:16.353Z,1.23
2022-10-17T22:01:46.698Z,1.25
2022-10-17T22:04:20.744Z,0.90
2022-10-17T22:06:52.274Z,0.98
2022-10-17T22:09:25.084Z,0.80
2022-10-17T22:11:56.321Z,1.00
2022-10-17T22:14:27.015Z,1.35
2022-10-17T22:16:55.790Z,1.20
2022-10-17T22:19:28.000Z,1.10
2022-10-17T22:21:56.466Z,1.10
2022-10-17T22:24:24.418Z,0.90
2022-10-17T22:26:52.568Z,1.08
2022-10-17T22:29:21.269Z,0.88
2022-10-17T22:31:49.081Z,0.90
2022-10-17T22:34:18.810Z,0.90
2022-10-17T22:36:48.897Z,0.90
2022-10-17T22:39:16.817Z,1.15
2022-10-17T22:41:44.595Z,1.00
2022-10-17T22:44:12.379Z,1.20
2022-10-17T22:46:40.242Z,0.80
2022-10-17T22:49:08.477Z,1.10
2022-10-17T22:51:36.262Z,0.85
2022-10-17T22:54:05.626Z,0.88
2022-10-17T22:56:33.390Z,1.10
2022-10-17T22:59:01.196Z,1.10
2022-10-17T23:01:28.972Z,1.10
2022-10-17T23:03:56.820Z,1.42
2022-10-17T23:06:25.282Z,0.98
2022-10-17T23:08:53.198Z,1.20
2022-10-17T23:11:22.328Z,0.95
2022-10-17T23:13:50.108Z,1.00
2022-10-17T23:16:18.099Z,1.15
2022-10-17T23:18:45.886Z,1.30
2022-10-17T23:21:13.661Z,0.95
2022-10-17T23:23:41.427Z,1.23
2022-10-17T23:26:12.841Z,1.15
2022-10-17T23:28:43.685Z,1.00
2022-10-17T23:33:46.383Z,0.90
2022-10-17T23:36:16.178Z,0.90
2022-10-17T23:38:46.054Z,1.20
2022-10-17T23:41:15.001Z,0.82
2022-10-17T23:43:44.953Z,1.30
2022-10-17T23:46:13.741Z,1.10
2022-10-17T23:48:42.580Z,0.90
2022-10-17T23:51:11.746Z,1.20
2022-10-17T23:53:41.268Z,1.20
2022-10-17T23:56:11.360Z,1.15
2022-10-17T23:58:40.757Z,1.38
